Aeroporto :
LOGIN :

Iscrizione | Disclaimer

   EN    FR    IT 

 










Sommario :    VFR   VFR Marginale   IFR   IFR Intensivo   IFR Molto Intensivo
Visibilità : 
Base nubi : 
>= 8 km
>= 3000ft
5 / 8 km
1000 / 3000 ft
1500m / 5 km
500 / 1000 ft
800 / 1500m
200 / 500 ft
< 800m
< 200 ft
Simboli :   Temporali  Nebbia  Neve Forte  Precipitazioni Forti  Vento > 20 kt
SIGMETs :   Varie  Temporali  Ghiacco  Turbolenza  Onda orograficha  Ceneri Vulcaniche






- Altitudine del aeroporto : 412 ft
- Codice IATA : ORE


LFOJ - Orleans

ULTIMO METAR :
  • 240830Z AUTO 03005KT 0350 R25/0500N FG VV/// 12/12 Q1020 BECMG 9999 NSW BKN010

METARs OBSOLETI :
  • 240800Z AUTO VRB03KT 0350 0300 R25/0450D FG VV/// 11/11 Q1019 BECMG 9999 NSW BKN010
  • 240730Z AUTO 02003KT 360V060 0300 R25/0400D FG VV/// 11/10 Q1019 BECMG 9999 NSW BKN010
  • 240700Z AUTO 03003KT 360V060 0300 0250 R25/0450N FG VV/// 10/10 Q1019 BECMG 4000 BR BKN004
  • 240630Z AUTO 02003KT 0250 R25/0325U FG VV/// 10/10 Q1019 BECMG 4000 BR BKN004
  • 240600Z AUTO 04005KT 0300 R25/0375N FG VV/// 10/10 Q1019 TEMPO 2000 BR

TAF AMD TAF LFOJ
Valido dal 24 a 04 ore il 25 a 03 ore UTC


240415Z 2404/2503 03005KT 0400 FG VV/// TX23/2414Z TN08/2405Z
TEMPO 2405/2408 2000 BR
BECMG 2408/2409 4000 BR BKN004
BECMG 2409/2411 9999 NSW BKN010
BECMG 2411/2412 CAVOK
BECMG 2500/2502 3000 BR
PROB40
TEMPO 2501/2503 0800 FG VV///



MetMap, La meteo Aeronautica in un colpo d'occhio ! - Copyright ORBIFLY Dicembre 2007 - Disclaimer

ORBIFLY MET'MAP TEAM :

Programmazione e sviluppo : Alexandra Zaïnal
Concezione : Baudouin d'Aumeries
Aiuto per la programmazione : Marc-Olivier Méhu
Supporto tecnico e logistico : Manuel Goepfert
Aiuto per la traduzione : Arnaldo La Scala

Contatto : metmap@orbifly.com




FONTI E CREDITI :

   NOAA